Owen, Kentucky
Current Conditions -  °F | °C
As of 10:53 AM on Tuesday 21 Oct 2014 (Local Time) from KFFT Reporting Station
Overcast Overcast  
Wind Chill: 12°   Ceiling: 5000
Heat Index: 12°   Visibility: 10mi
Dew Point:   Wind: 9mph
Humidity: 74%   Direction: 340°NNW
Pressure: 30.05"   Gusts: NA
Location:  38.5364°N, 84.5918°W
Report Text: KFFT 211453Z AUTO 34008KT 10SM OVC050 12/07 A3005 RMK AO2 SLP175 T01170072 51019
Loading
Personal Weather Stations






























Interactive Weather Map
Tropical Storm Tracking
New forecast layout! Learn more

10-Day Weather Forecast

Advertisements
Track Severe Weather on mobile